createdAt,value
2022-12-01T00:01:23.092Z,15.80
2022-12-01T00:04:07.057Z,16.48
2022-12-01T00:06:43.919Z,16.50
2022-12-01T00:12:35.843Z,16.10
2022-12-01T00:15:15.535Z,16.85
2022-12-01T00:18:01.691Z,15.50
2022-12-01T00:20:48.179Z,17.02
2022-12-01T00:23:27.516Z,16.42
2022-12-01T00:25:56.111Z,16.20
2022-12-01T00:28:34.184Z,16.20
2022-12-01T00:31:08.509Z,15.88
2022-12-01T00:33:45.447Z,14.80
2022-12-01T00:36:26.690Z,16.33
2022-12-01T00:39:11.254Z,16.10
2022-12-01T00:41:50.077Z,16.23
2022-12-01T00:44:26.811Z,15.57
2022-12-01T00:46:58.368Z,14.73
2022-12-01T00:49:42.042Z,16.38
2022-12-01T00:52:20.938Z,16.25
2022-12-01T00:54:58.254Z,16.50
2022-12-01T00:57:48.007Z,16.02
2022-12-01T01:00:36.184Z,15.52
2022-12-01T01:03:41.435Z,17.02
2022-12-01T01:06:19.378Z,16.95
2022-12-01T01:08:49.275Z,16.70
2022-12-01T01:11:22.257Z,16.52
2022-12-01T01:13:55.291Z,17.10
2022-12-01T01:16:28.584Z,17.13
2022-12-01T01:19:07.595Z,16.23
2022-12-01T01:21:48.159Z,15.68
2022-12-01T01:24:22.390Z,17.73
2022-12-01T01:27:34.641Z,16.67
2022-12-01T01:30:27.770Z,18.17
2022-12-01T01:33:10.464Z,17.15
2022-12-01T01:35:49.916Z,16.23
2022-12-01T01:38:19.946Z,16.98
2022-12-01T01:40:48.103Z,17.02
2022-12-01T01:43:38.060Z,16.65
2022-12-01T01:46:19.097Z,17.33
2022-12-01T01:49:09.796Z,17.33
2022-12-01T01:51:46.101Z,16.42
2022-12-01T01:54:36.577Z,17.10
2022-12-01T01:57:38.582Z,18.13
2022-12-01T02:00:16.540Z,16.88
2022-12-01T02:03:03.514Z,16.58
2022-12-01T02:05:36.442Z,18.42
2022-12-01T02:08:13.812Z,18.23
2022-12-01T02:11:08.406Z,16.42
2022-12-01T02:14:04.849Z,16.58
2022-12-01T02:16:57.266Z,16.08
2022-12-01T02:20:07.304Z,15.70
2022-12-01T02:22:53.415Z,15.93
2022-12-01T02:25:58.670Z,15.82
2022-12-01T02:29:09.049Z,17.45
2022-12-01T02:32:19.175Z,18.65
2022-12-01T02:35:09.164Z,16.45
2022-12-01T02:38:14.482Z,17.33
2022-12-01T02:41:07.647Z,17.10
2022-12-01T02:44:20.255Z,17.45
2022-12-01T02:47:00.947Z,17.13
2022-12-01T02:49:35.233Z,16.35
2022-12-01T02:52:08.665Z,16.90
2022-12-01T02:54:41.952Z,17.20
2022-12-01T02:57:24.439Z,16.48
2022-12-01T03:00:06.204Z,17.20
2022-12-01T03:03:19.621Z,15.98
2022-12-01T03:06:06.023Z,17.30
2022-12-01T03:12:19.286Z,16.55
2022-12-01T03:15:21.989Z,17.35
2022-12-01T03:18:14.947Z,16.80
2022-12-01T03:21:13.815Z,15.07
2022-12-01T03:23:48.573Z,16.60
2022-12-01T03:26:25.930Z,16.27
2022-12-01T03:29:36.612Z,17.73
2022-12-01T03:32:33.058Z,16.10
2022-12-01T03:35:06.942Z,16.73
2022-12-01T03:38:01.206Z,16.85
2022-12-01T03:40:37.880Z,17.02
2022-12-01T03:46:09.428Z,15.32
2022-12-01T03:49:10.188Z,16.75
2022-12-01T03:52:13.340Z,17.60
2022-12-01T03:55:06.416Z,15.48
2022-12-01T03:57:56.177Z,16.30
2022-12-01T04:00:27.961Z,16.25
2022-12-01T04:03:13.317Z,15.90
2022-12-01T04:05:45.891Z,16.80
2022-12-01T04:08:13.414Z,17.30
2022-12-01T04:10:40.895Z,15.93
2022-12-01T04:13:19.229Z,18.02
2022-12-01T04:15:53.102Z,15.07
2022-12-01T04:18:27.235Z,16.48
2022-12-01T04:21:00.915Z,17.90
2022-12-01T04:24:06.215Z,16.48
2022-12-01T04:26:40.391Z,17.13
2022-12-01T04:29:18.619Z,17.33
2022-12-01T04:31:48.913Z,16.70
2022-12-01T04:34:20.618Z,16.45
2022-12-01T04:36:54.810Z,16.77
2022-12-01T04:39:32.651Z,16.67
2022-12-01T04:42:12.547Z,15.93
2022-12-01T04:44:50.466Z,16.52
2022-12-01T04:50:04.057Z,16.30
2022-12-01T04:52:42.043Z,18.30
2022-12-01T04:55:17.344Z,17.88
2022-12-01T04:57:53.815Z,16.38
2022-12-01T05:00:25.865Z,16.55
2022-12-01T05:03:13.661Z,16.20
2022-12-01T05:05:51.873Z,15.63
2022-12-01T05:08:25.107Z,15.15
2022-12-01T05:11:05.743Z,15.52
2022-12-01T05:13:33.064Z,16.25
2022-12-01T05:16:13.365Z,15.60
2022-12-01T05:19:17.374Z,15.65
2022-12-01T05:21:49.295Z,16.50
2022-12-01T05:24:28.210Z,15.20
2022-12-01T05:27:01.592Z,16.13
2022-12-01T05:29:34.296Z,17.67
2022-12-01T05:32:08.418Z,16.42
2022-12-01T05:35:05.123Z,16.40
2022-12-01T05:37:34.949Z,15.80
2022-12-01T05:40:10.009Z,16.30
2022-12-01T05:42:39.618Z,16.98
2022-12-01T05:45:10.795Z,17.70
2022-12-01T05:47:48.349Z,16.65
2022-12-01T05:50:20.172Z,16.05
2022-12-01T05:52:49.951Z,16.08
2022-12-01T05:55:28.621Z,15.82
2022-12-01T05:58:04.377Z,16.15
2022-12-01T06:00:35.155Z,16.33
2022-12-01T06:05:47.416Z,15.93
2022-12-01T06:08:31.004Z,15.18
2022-12-01T06:11:05.366Z,15.77
2022-12-01T06:13:50.274Z,16.15
2022-12-01T06:16:19.902Z,14.88
2022-12-01T06:18:57.272Z,15.98
2022-12-01T06:21:36.305Z,15.90
2022-12-01T06:24:33.988Z,15.20
2022-12-01T06:27:11.350Z,15.85
2022-12-01T06:29:51.740Z,16.00
2022-12-01T06:32:27.565Z,16.05
2022-12-01T06:35:01.866Z,16.05
2022-12-01T06:37:31.495Z,16.98
2022-12-01T06:39:58.603Z,17.95
2022-12-01T06:42:30.703Z,15.60
2022-12-01T06:45:03.264Z,16.25
2022-12-01T06:47:39.264Z,17.25
2022-12-01T06:50:11.391Z,15.93
2022-12-01T06:52:53.944Z,16.20
2022-12-01T06:55:35.845Z,16.02
2022-12-01T06:58:24.109Z,17.42
2022-12-01T07:01:03.176Z,16.23
2022-12-01T07:03:47.624Z,14.50
2022-12-01T07:06:18.530Z,16.73
2022-12-01T07:11:15.518Z,15.45
2022-12-01T07:14:00.232Z,16.10
2022-12-01T07:16:32.230Z,16.33
2022-12-01T07:19:05.330Z,15.53
2022-12-01T07:21:37.140Z,15.18
2022-12-01T07:24:04.264Z,14.93
2022-12-01T07:26:34.361Z,16.83
2022-12-01T07:29:02.226Z,17.48
2022-12-01T07:31:29.522Z,17.38
2022-12-01T07:34:04.836Z,17.33
2022-12-01T07:37:15.726Z,16.52
2022-12-01T07:39:58.335Z,17.23
2022-12-01T07:42:33.423Z,16.88
2022-12-01T07:45:11.940Z,17.20
2022-12-01T07:47:48.731Z,16.23
2022-12-01T07:50:35.688Z,17.08
2022-12-01T07:53:16.742Z,18.30
2022-12-01T07:55:54.907Z,17.50
2022-12-01T07:58:22.095Z,17.55
2022-12-01T08:01:19.208Z,19.50
2022-12-01T08:04:01.575Z,18.27
2022-12-01T08:06:38.655Z,18.40
2022-12-01T08:09:31.801Z,18.95
2022-12-01T08:12:21.913Z,16.80
2022-12-01T08:15:37.262Z,18.27
2022-12-01T08:18:19.445Z,18.15
2022-12-01T08:20:59.428Z,17.90
2022-12-01T08:23:56.309Z,17.75
2022-12-01T08:26:34.284Z,17.35
2022-12-01T08:29:20.230Z,18.73
2022-12-01T08:31:58.436Z,18.10
2022-12-01T08:37:30.841Z,18.33
2022-12-01T08:40:27.170Z,20.23
2022-12-01T08:43:55.979Z,19.17
2022-12-01T08:46:21.643Z,18.67
2022-12-01T08:49:20.743Z,17.60
2022-12-01T08:52:06.703Z,18.60
2022-12-01T08:54:48.478Z,18.75
2022-12-01T08:57:38.331Z,19.05
2022-12-01T09:02:52.101Z,18.83
2022-12-01T09:09:49.245Z,18.23
2022-12-01T09:12:19.910Z,17.98
2022-12-01T09:18:52.870Z,18.08
2022-12-01T09:22:11.417Z,17.95
2022-12-01T09:28:37.482Z,17.92
2022-12-01T09:38:43.271Z,16.67
2022-12-01T09:39:04.754Z,17.48
2022-12-01T09:45:11.740Z,18.77
2022-12-01T09:47:45.018Z,17.73
2022-12-01T09:50:24.112Z,18.08
2022-12-01T09:53:10.700Z,17.55
2022-12-01T09:55:44.050Z,17.27
2022-12-01T09:58:18.363Z,16.90
2022-12-01T10:01:27.496Z,18.27
2022-12-01T10:04:06.249Z,18.40
2022-12-01T10:07:08.060Z,15.38
2022-12-01T10:10:09.767Z,16.63
2022-12-01T10:13:09.283Z,15.82
2022-12-01T10:16:08.049Z,17.33
2022-12-01T10:19:43.001Z,16.73
2022-12-01T10:22:52.784Z,18.20
2022-12-01T10:25:59.867Z,19.55
2022-12-01T11:07:07.055Z,16.45
2022-12-01T11:09:40.123Z,17.92
2022-12-01T11:12:28.463Z,17.65
2022-12-01T11:15:03.393Z,15.55
2022-12-01T11:17:46.491Z,17.30
2022-12-01T11:21:00.197Z,16.13
2022-12-01T11:23:29.458Z,17.52
2022-12-01T11:26:03.988Z,17.13
2022-12-01T11:28:39.167Z,16.42
2022-12-01T11:31:09.434Z,16.83
2022-12-01T11:33:53.739Z,15.70
2022-12-01T11:36:34.289Z,16.58
2022-12-01T11:39:30.688Z,17.25
2022-12-01T11:42:00.971Z,17.63
2022-12-01T11:44:53.515Z,16.42
2022-12-01T11:47:29.685Z,16.48
2022-12-01T11:50:05.474Z,17.15
2022-12-01T11:52:36.700Z,15.63
2022-12-01T11:55:22.966Z,16.27
2022-12-01T11:57:58.177Z,16.20
2022-12-01T12:00:28.630Z,16.90
2022-12-01T12:03:16.545Z,16.33
2022-12-01T12:06:39.027Z,15.97
2022-12-01T12:09:14.421Z,14.90
2022-12-01T12:12:10.382Z,16.92
2022-12-01T12:14:47.671Z,16.20
2022-12-01T12:17:31.310Z,17.38
2022-12-01T12:20:30.341Z,15.57
2022-12-01T12:23:18.120Z,15.35
2022-12-01T12:26:01.262Z,14.50
2022-12-01T12:28:46.013Z,14.77
2022-12-01T12:31:43.005Z,15.82
2022-12-01T12:34:44.835Z,14.48
2022-12-01T12:37:53.252Z,15.80
2022-12-01T12:45:12.444Z,15.30
2022-12-01T12:48:00.589Z,15.93
2022-12-01T12:50:48.313Z,15.48
2022-12-01T12:53:35.239Z,15.20
2022-12-01T12:56:07.277Z,15.30
2022-12-01T12:58:42.642Z,17.88
2022-12-01T13:01:29.179Z,16.05
2022-12-01T13:04:04.493Z,16.95
2022-12-01T13:07:01.793Z,17.70
2022-12-01T13:09:34.805Z,15.77
2022-12-01T13:12:15.952Z,16.85
2022-12-01T13:14:49.777Z,16.40
2022-12-01T13:17:23.467Z,15.23
2022-12-01T13:19:55.559Z,16.45
2022-12-01T13:22:30.386Z,15.25
2022-12-01T13:24:57.446Z,16.02
2022-12-01T13:27:28.535Z,15.93
2022-12-01T13:29:56.711Z,15.30
2022-12-01T13:32:41.053Z,16.42
2022-12-01T13:35:35.220Z,15.07
2022-12-01T13:38:29.980Z,18.80
2022-12-01T13:41:18.765Z,19.23
2022-12-01T13:44:21.476Z,17.02
2022-12-01T13:47:06.836Z,16.40
2022-12-01T13:49:50.806Z,17.17
2022-12-01T13:52:23.512Z,16.08
2022-12-01T13:55:22.350Z,16.58
2022-12-01T13:58:17.291Z,15.80
2022-12-01T14:00:48.953Z,15.85
2022-12-01T14:03:20.685Z,16.05
2022-12-01T14:06:18.557Z,17.48
2022-12-01T14:08:57.330Z,15.45
2022-12-01T14:11:41.037Z,15.13
2022-12-01T14:14:46.010Z,16.77
2022-12-01T14:17:25.254Z,15.90
2022-12-01T14:19:54.257Z,15.77
2022-12-01T14:23:36.766Z,16.15
2022-12-01T14:26:32.087Z,14.70
2022-12-01T14:29:02.314Z,15.43
2022-12-01T14:35:23.413Z,15.95
2022-12-01T14:37:59.188Z,16.42
2022-12-01T14:40:40.052Z,16.45
2022-12-01T14:43:45.838Z,15.73
2022-12-01T14:50:02.068Z,13.75
2022-12-01T14:53:20.205Z,14.70
2022-12-01T14:56:45.770Z,14.68
2022-12-01T14:59:39.389Z,14.63
2022-12-01T15:02:23.290Z,14.88
2022-12-01T15:05:18.325Z,15.38
2022-12-01T15:14:52.825Z,14.45
2022-12-01T15:17:43.938Z,16.35
2022-12-01T15:23:42.331Z,14.40
2022-12-01T15:26:38.946Z,17.25
2022-12-01T15:34:03.580Z,15.98
2022-12-01T15:36:45.560Z,16.30
2022-12-01T15:39:39.251Z,16.55
2022-12-01T15:46:19.939Z,16.65
2022-12-01T15:54:00.373Z,19.55
2022-12-01T15:56:46.029Z,17.15
2022-12-01T15:59:22.868Z,18.02
2022-12-01T16:02:45.184Z,20.73
2022-12-01T16:05:37.049Z,18.58
2022-12-01T16:08:30.287Z,17.45
2022-12-01T16:15:56.075Z,17.80
2022-12-01T16:23:38.971Z,18.05
2022-12-01T16:24:24.963Z,18.47
2022-12-01T16:26:43.226Z,19.20
2022-12-01T16:30:20.540Z,19.27
2022-12-01T16:33:31.142Z,17.23
2022-12-01T16:36:34.136Z,18.27
2022-12-01T16:40:09.652Z,19.00
2022-12-01T16:43:02.174Z,19.17
2022-12-01T16:49:14.949Z,18.85
2022-12-01T16:52:16.045Z,17.77
2022-12-01T16:55:21.612Z,18.33
2022-12-01T17:01:26.499Z,19.23
2022-12-01T17:04:10.782Z,19.30
2022-12-01T17:06:59.492Z,22.60
2022-12-01T17:10:10.939Z,21.85
2022-12-01T17:14:03.615Z,22.08
2022-12-01T17:17:25.307Z,17.90
2022-12-01T17:20:27.509Z,19.27
2022-12-01T17:23:26.389Z,18.67
2022-12-01T17:30:52.300Z,19.60
2022-12-01T17:33:22.338Z,17.38
2022-12-01T17:35:55.413Z,19.63
2022-12-01T17:42:50.395Z,18.00
2022-12-01T17:45:50.603Z,19.05
2022-12-01T17:48:51.623Z,17.58
2022-12-01T17:54:37.063Z,18.00
2022-12-01T17:57:42.767Z,18.63
2022-12-01T18:01:09.721Z,18.45
2022-12-01T18:04:20.864Z,17.42
2022-12-01T18:07:19.736Z,19.17
2022-12-01T18:13:21.228Z,19.15
2022-12-01T18:19:09.270Z,20.35
2022-12-01T18:21:35.926Z,18.42
2022-12-01T18:24:04.012Z,19.52
2022-12-01T18:26:32.779Z,19.13
2022-12-01T18:29:08.549Z,24.10
2022-12-01T18:31:35.187Z,21.10
2022-12-01T18:34:03.386Z,20.98
2022-12-01T18:36:31.640Z,20.45
2022-12-01T18:39:00.207Z,18.92
2022-12-01T18:41:26.968Z,17.60
2022-12-01T18:43:54.194Z,20.73
2022-12-01T18:46:21.332Z,19.10
2022-12-01T18:48:50.692Z,19.33
2022-12-01T18:51:19.573Z,20.88
2022-12-01T18:53:46.513Z,20.30
2022-12-01T18:56:15.233Z,20.63
2022-12-01T18:58:42.412Z,20.75
2022-12-01T19:01:26.790Z,19.55
2022-12-01T19:03:57.596Z,19.25
2022-12-01T19:08:52.785Z,17.45
2022-12-01T19:11:20.062Z,18.25
2022-12-01T19:13:46.788Z,17.30
2022-12-01T19:16:16.135Z,16.35
2022-12-01T19:18:43.060Z,17.33
2022-12-01T19:21:12.624Z,18.38
2022-12-01T19:23:39.145Z,18.02
2022-12-01T19:26:12.824Z,16.73
2022-12-01T19:28:40.312Z,17.77
2022-12-01T19:31:08.793Z,16.52
2022-12-01T19:33:35.416Z,14.68
2022-12-01T19:36:06.116Z,14.90
2022-12-01T19:38:32.574Z,14.20
2022-12-01T19:40:58.959Z,14.00
2022-12-01T19:43:25.380Z,13.98
2022-12-01T19:45:51.811Z,14.82
2022-12-01T19:48:18.453Z,14.60
2022-12-01T19:50:44.847Z,19.73
2022-12-01T19:53:11.293Z,16.50
2022-12-01T19:55:38.035Z,15.38
2022-12-01T19:58:05.787Z,15.32
2022-12-01T20:00:32.620Z,15.07
2022-12-01T20:02:59.804Z,14.75
2022-12-01T20:05:26.214Z,15.52
2022-12-01T20:07:52.645Z,15.00
2022-12-01T20:10:20.247Z,15.43
2022-12-01T20:12:47.446Z,18.02
2022-12-01T20:15:14.533Z,18.55
2022-12-01T20:17:41.323Z,17.70
2022-12-01T20:20:08.395Z,17.77
2022-12-01T20:22:35.646Z,16.77
2022-12-01T20:25:03.029Z,19.20
2022-12-01T20:27:29.493Z,18.17
2022-12-01T20:29:56.044Z,17.92
2022-12-01T20:32:23.783Z,18.95
2022-12-01T20:34:50.854Z,16.75
2022-12-01T20:37:17.465Z,16.17
2022-12-01T20:39:43.882Z,15.10
2022-12-01T20:42:10.759Z,17.67
2022-12-01T20:44:37.404Z,18.75
2022-12-01T20:47:04.420Z,19.45
2022-12-01T20:49:31.048Z,16.98
2022-12-01T20:51:57.481Z,16.75
2022-12-01T20:54:28.702Z,16.85
2022-12-01T20:56:56.637Z,15.93
2022-12-01T20:59:23.070Z,17.05
2022-12-01T21:01:49.481Z,17.27
2022-12-01T21:04:15.897Z,16.48
2022-12-01T21:06:42.527Z,17.35
2022-12-01T21:09:08.986Z,16.92
2022-12-01T21:12:04.618Z,16.55
2022-12-01T21:14:35.672Z,16.50
2022-12-01T21:17:25.650Z,18.42
2022-12-01T21:19:54.730Z,16.50
2022-12-01T21:22:21.176Z,13.80
2022-12-01T21:24:51.572Z,16.55
2022-12-01T21:27:18.395Z,16.83
2022-12-01T21:29:47.551Z,15.27
2022-12-01T21:32:34.342Z,16.45
2022-12-01T21:35:13.598Z,15.05
2022-12-01T21:37:40.035Z,16.73
2022-12-01T21:40:24.617Z,17.23
2022-12-01T21:42:51.457Z,14.85
2022-12-01T21:45:27.066Z,14.65
2022-12-01T21:48:00.054Z,15.57
2022-12-01T21:50:27.264Z,14.98
2022-12-01T21:52:53.641Z,17.02
2022-12-01T21:55:19.957Z,16.58
2022-12-01T21:57:51.444Z,17.77
2022-12-01T22:00:35.763Z,16.60
2022-12-01T22:03:08.299Z,15.90
2022-12-01T22:05:40.429Z,17.73
2022-12-01T22:08:12.611Z,15.40
2022-12-01T22:10:55.891Z,15.90
2022-12-01T22:13:37.343Z,16.45
2022-12-01T22:16:03.913Z,15.30
2022-12-01T22:18:38.136Z,17.02
2022-12-01T22:21:22.731Z,15.95
2022-12-01T22:23:50.435Z,17.15
2022-12-01T22:26:20.156Z,16.58
2022-12-01T22:28:47.465Z,17.15
2022-12-01T22:31:20.485Z,16.40
2022-12-01T22:33:47.458Z,15.63
2022-12-01T22:36:26.146Z,16.45
2022-12-01T22:38:52.540Z,15.15
2022-12-01T22:41:22.854Z,16.70
2022-12-01T22:43:56.679Z,16.30
2022-12-01T22:46:28.589Z,15.18
2022-12-01T22:49:01.830Z,16.88
2022-12-01T22:52:03.825Z,16.77
2022-12-01T22:54:30.248Z,16.38
2022-12-01T22:57:11.557Z,15.73
2022-12-01T22:59:41.220Z,14.95
2022-12-01T23:02:20.594Z,15.82
2022-12-01T23:04:48.951Z,15.77
2022-12-01T23:07:35.553Z,15.15
2022-12-01T23:10:08.238Z,19.05
2022-12-01T23:12:36.395Z,16.55
2022-12-01T23:15:31.775Z,17.05
2022-12-01T23:18:20.584Z,15.57
2022-12-01T23:20:49.606Z,16.13
2022-12-01T23:23:21.865Z,16.10
2022-12-01T23:25:55.596Z,15.90
2022-12-01T23:28:22.904Z,16.98
2022-12-01T23:30:53.065Z,16.25
2022-12-01T23:33:22.346Z,15.13
2022-12-01T23:35:57.279Z,17.23
2022-12-01T23:38:29.175Z,15.13
2022-12-01T23:41:01.247Z,16.70
2022-12-01T23:43:32.003Z,15.23
2022-12-01T23:46:04.459Z,16.27
2022-12-01T23:48:39.288Z,14.63
2022-12-01T23:51:15.669Z,17.17
2022-12-01T23:53:42.826Z,16.00
2022-12-01T23:56:14.139Z,16.92
2022-12-01T23:58:40.581Z,16.00
